sensor_id;sensor_type;location;lat;lon;timestamp;temperature;humidity
49042;DHT22;34859;51.608;11.462;2022-09-21T00:01:30;7.00;99.90
49042;DHT22;34859;51.608;11.462;2022-09-21T00:04:14;7.00;99.90
49042;DHT22;34859;51.608;11.462;2022-09-21T00:06:59;7.00;99.90
49042;DHT22;34859;51.608;11.462;2022-09-21T00:09:43;7.00;99.90
49042;DHT22;34859;51.608;11.462;2022-09-21T00:12:27;7.00;99.90
49042;DHT22;34859;51.608;11.462;2022-09-21T00:15:15;6.80;99.90
49042;DHT22;34859;51.608;11.462;2022-09-21T00:18:02;6.80;99.90
49042;DHT22;34859;51.608;11.462;2022-09-21T00:20:44;6.60;99.90
49042;DHT22;34859;51.608;11.462;2022-09-21T00:23:28;6.60;99.90
49042;DHT22;34859;51.608;11.462;2022-09-21T00:26:17;6.70;99.90
49042;DHT22;34859;51.608;11.462;2022-09-21T00:29:03;6.70;99.90
49042;DHT22;34859;51.608;11.462;2022-09-21T00:31:47;6.70;99.90
49042;DHT22;34859;51.608;11.462;2022-09-21T00:34:31;6.70;99.90
49042;DHT22;34859;51.608;11.462;2022-09-21T00:37:15;6.80;99.90
49042;DHT22;34859;51.608;11.462;2022-09-21T00:39:59;6.70;99.90
49042;DHT22;34859;51.608;11.462;2022-09-21T00:42:43;6.60;99.90
49042;DHT22;34859;51.608;11.462;2022-09-21T00:45:27;6.60;99.90
49042;DHT22;34859;51.608;11.462;2022-09-21T00:48:12;6.60;99.90
49042;DHT22;34859;51.608;11.462;2022-09-21T00:51:00;6.50;99.90
49042;DHT22;34859;51.608;11.462;2022-09-21T00:53:46;6.60;99.90
49042;DHT22;34859;51.608;11.462;2022-09-21T00:56:33;6.60;99.90
49042;DHT22;34859;51.608;11.462;2022-09-21T00:59:18;6.50;99.90
49042;DHT22;34859;51.608;11.462;2022-09-21T01:02:04;6.40;99.90
49042;DHT22;34859;51.608;11.462;2022-09-21T01:04:48;6.30;99.90
49042;DHT22;34859;51.608;11.462;2022-09-21T01:07:39;6.30;99.90
49042;DHT22;34859;51.608;11.462;2022-09-21T01:10:24;6.30;99.90
49042;DHT22;34859;51.608;11.462;2022-09-21T01:13:37;6.40;99.90
49042;DHT22;34859;51.608;11.462;2022-09-21T01:16:48;6.40;99.90
49042;DHT22;34859;51.608;11.462;2022-09-21T01:19:57;6.30;99.90
49042;DHT22;34859;51.608;11.462;2022-09-21T01:29:25;6.30;99.90
49042;DHT22;34859;51.608;11.462;2022-09-21T01:35:19;6.30;99.90
49042;DHT22;34859;51.608;11.462;2022-09-21T01:38:11;6.20;99.90
49042;DHT22;34859;51.608;11.462;2022-09-21T01:41:01;6.20;99.90
49042;DHT22;34859;51.608;11.462;2022-09-21T01:43:49;6.20;99.90
49042;DHT22;34859;51.608;11.462;2022-09-21T01:46:35;6.20;99.90
49042;DHT22;34859;51.608;11.462;2022-09-21T01:49:25;6.20;99.90
49042;DHT22;34859;51.608;11.462;2022-09-21T01:52:28;6.10;99.90
49042;DHT22;34859;51.608;11.462;2022-09-21T01:55:19;6.20;99.90
49042;DHT22;34859;51.608;11.462;2022-09-21T02:01:02;6.10;99.90
49042;DHT22;34859;51.608;11.462;2022-09-21T02:04:12;6.20;99.90
49042;DHT22;34859;51.608;11.462;2022-09-21T02:06:56;6.20;99.90
49042;DHT22;34859;51.608;11.462;2022-09-21T02:09:40;6.10;99.90
49042;DHT22;34859;51.608;11.462;2022-09-21T02:12:24;6.10;99.90
49042;DHT22;34859;51.608;11.462;2022-09-21T02:15:09;6.10;99.90
49042;DHT22;34859;51.608;11.462;2022-09-21T02:18:07;6.10;99.90
49042;DHT22;34859;51.608;11.462;2022-09-21T02:20:59;6.10;99.90
49042;DHT22;34859;51.608;11.462;2022-09-21T02:23:57;6.20;99.90
49042;DHT22;34859;51.608;11.462;2022-09-21T02:26:54;6.10;99.90
49042;DHT22;34859;51.608;11.462;2022-09-21T02:36:21;6.00;99.90
49042;DHT22;34859;51.608;11.462;2022-09-21T02:39:23;6.00;99.90
49042;DHT22;34859;51.608;11.462;2022-09-21T02:42:17;6.00;99.90
49042;DHT22;34859;51.608;11.462;2022-09-21T02:45:13;6.00;99.90
49042;DHT22;34859;51.608;11.462;2022-09-21T02:48:12;5.90;99.90
49042;DHT22;34859;51.608;11.462;2022-09-21T02:51:03;5.90;99.90
49042;DHT22;34859;51.608;11.462;2022-09-21T02:53:51;5.90;99.90
49042;DHT22;34859;51.608;11.462;2022-09-21T02:56:37;5.90;99.90
49042;DHT22;34859;51.608;11.462;2022-09-21T02:59:22;5.80;99.90
49042;DHT22;34859;51.608;11.462;2022-09-21T03:02:08;5.80;99.90
49042;DHT22;34859;51.608;11.462;2022-09-21T03:04:53;5.80;99.90
49042;DHT22;34859;51.608;11.462;2022-09-21T03:07:37;5.80;99.90
49042;DHT22;34859;51.608;11.462;2022-09-21T03:10:18;5.80;99.90
49042;DHT22;34859;51.608;11.462;2022-09-21T03:13:00;5.70;99.90
49042;DHT22;34859;51.608;11.462;2022-09-21T03:15:45;5.60;99.90
49042;DHT22;34859;51.608;11.462;2022-09-21T03:18:29;5.60;99.90
49042;DHT22;34859;51.608;11.462;2022-09-21T03:21:13;5.30;99.90
49042;DHT22;34859;51.608;11.462;2022-09-21T03:23:58;5.20;99.90
49042;DHT22;34859;51.608;11.462;2022-09-21T03:26:42;5.10;99.90
49042;DHT22;34859;51.608;11.462;2022-09-21T03:29:26;5.10;99.90
49042;DHT22;34859;51.608;11.462;2022-09-21T03:32:10;5.00;99.90
49042;DHT22;34859;51.608;11.462;2022-09-21T03:34:54;5.00;99.90
49042;DHT22;34859;51.608;11.462;2022-09-21T03:37:39;5.00;99.90
49042;DHT22;34859;51.608;11.462;2022-09-21T03:40:23;5.00;99.90
49042;DHT22;34859;51.608;11.462;2022-09-21T03:43:10;5.00;99.90
49042;DHT22;34859;51.608;11.462;2022-09-21T03:45:54;5.00;99.90
49042;DHT22;34859;51.608;11.462;2022-09-21T03:48:38;5.00;99.90
49042;DHT22;34859;51.608;11.462;2022-09-21T03:51:25;5.10;99.90
49042;DHT22;34859;51.608;11.462;2022-09-21T03:54:09;5.20;99.90
49042;DHT22;34859;51.608;11.462;2022-09-21T03:56:54;5.30;99.90
49042;DHT22;34859;51.608;11.462;2022-09-21T03:59:38;5.40;99.90
49042;DHT22;34859;51.608;11.462;2022-09-21T04:02:21;5.30;99.90
49042;DHT22;34859;51.608;11.462;2022-09-21T04:05:10;5.40;99.90
49042;DHT22;34859;51.608;11.462;2022-09-21T04:07:57;5.50;99.90
49042;DHT22;34859;51.608;11.462;2022-09-21T04:10:41;5.50;99.90
49042;DHT22;34859;51.608;11.462;2022-09-21T04:13:26;5.40;99.90
49042;DHT22;34859;51.608;11.462;2022-09-21T04:16:10;5.40;99.90
49042;DHT22;34859;51.608;11.462;2022-09-21T04:18:54;5.40;99.90
49042;DHT22;34859;51.608;11.462;2022-09-21T04:21:38;5.40;99.90
49042;DHT22;34859;51.608;11.462;2022-09-21T04:24:22;5.20;99.90
49042;DHT22;34859;51.608;11.462;2022-09-21T04:27:07;5.20;99.90
49042;DHT22;34859;51.608;11.462;2022-09-21T04:29:52;5.10;99.90
49042;DHT22;34859;51.608;11.462;2022-09-21T04:32:36;4.90;99.90
49042;DHT22;34859;51.608;11.462;2022-09-21T04:35:20;4.90;99.90
49042;DHT22;34859;51.608;11.462;2022-09-21T04:38:04;5.00;99.90
49042;DHT22;34859;51.608;11.462;2022-09-21T04:40:56;5.00;99.90
49042;DHT22;34859;51.608;11.462;2022-09-21T04:43:41;5.10;99.90
49042;DHT22;34859;51.608;11.462;2022-09-21T04:46:26;5.10;99.90
49042;DHT22;34859;51.608;11.462;2022-09-21T04:49:10;5.10;99.90
49042;DHT22;34859;51.608;11.462;2022-09-21T04:51:55;5.00;99.90
49042;DHT22;34859;51.608;11.462;2022-09-21T04:54:39;5.00;99.90
49042;DHT22;34859;51.608;11.462;2022-09-21T04:57:23;5.00;99.90
49042;DHT22;34859;51.608;11.462;2022-09-21T05:00:08;4.90;99.90
49042;DHT22;34859;51.608;11.462;2022-09-21T05:02:52;4.70;99.90
49042;DHT22;34859;51.608;11.462;2022-09-21T05:05:36;4.70;99.90
49042;DHT22;34859;51.608;11.462;2022-09-21T05:08:21;4.80;99.90
49042;DHT22;34859;51.608;11.462;2022-09-21T05:11:25;4.80;99.90
49042;DHT22;34859;51.608;11.462;2022-09-21T05:14:09;4.90;99.90
49042;DHT22;34859;51.608;11.462;2022-09-21T05:16:55;4.90;99.90
49042;DHT22;34859;51.608;11.462;2022-09-21T05:19:39;5.00;99.90
49042;DHT22;34859;51.608;11.462;2022-09-21T05:22:24;5.00;99.90
49042;DHT22;34859;51.608;11.462;2022-09-21T05:25:08;5.10;99.90
49042;DHT22;34859;51.608;11.462;2022-09-21T05:27:53;5.10;99.90
49042;DHT22;34859;51.608;11.462;2022-09-21T05:30:37;5.20;99.90
49042;DHT22;34859;51.608;11.462;2022-09-21T05:33:22;5.20;99.90
49042;DHT22;34859;51.608;11.462;2022-09-21T05:39:04;5.30;99.90
49042;DHT22;34859;51.608;11.462;2022-09-21T05:41:50;5.30;99.90
49042;DHT22;34859;51.608;11.462;2022-09-21T05:44:34;5.30;99.90
49042;DHT22;34859;51.608;11.462;2022-09-21T05:47:25;5.30;99.90
49042;DHT22;34859;51.608;11.462;2022-09-21T05:50:32;5.40;99.90
49042;DHT22;34859;51.608;11.462;2022-09-21T05:53:39;5.50;99.90
49042;DHT22;34859;51.608;11.462;2022-09-21T05:56:40;5.50;99.90
49042;DHT22;34859;51.608;11.462;2022-09-21T06:05:53;5.70;99.90
49042;DHT22;34859;51.608;11.462;2022-09-21T06:08:37;5.80;99.90
49042;DHT22;34859;51.608;11.462;2022-09-21T06:11:21;5.90;99.90
49042;DHT22;34859;51.608;11.462;2022-09-21T06:14:05;6.00;99.90
49042;DHT22;34859;51.608;11.462;2022-09-21T06:16:50;6.10;99.90
49042;DHT22;34859;51.608;11.462;2022-09-21T06:19:34;6.20;99.90
49042;DHT22;34859;51.608;11.462;2022-09-21T06:22:19;6.30;99.90
49042;DHT22;34859;51.608;11.462;2022-09-21T06:25:03;6.40;99.90
49042;DHT22;34859;51.608;11.462;2022-09-21T06:27:47;6.40;99.90
49042;DHT22;34859;51.608;11.462;2022-09-21T06:30:32;6.50;99.90
49042;DHT22;34859;51.608;11.462;2022-09-21T06:33:17;6.60;99.90
49042;DHT22;34859;51.608;11.462;2022-09-21T06:36:06;6.70;99.90
49042;DHT22;34859;51.608;11.462;2022-09-21T06:38:50;6.80;99.90
49042;DHT22;34859;51.608;11.462;2022-09-21T06:41:34;6.90;99.90
49042;DHT22;34859;51.608;11.462;2022-09-21T06:44:18;7.00;99.90
49042;DHT22;34859;51.608;11.462;2022-09-21T06:47:02;7.10;99.90
49042;DHT22;34859;51.608;11.462;2022-09-21T06:49:47;7.20;99.90
49042;DHT22;34859;51.608;11.462;2022-09-21T06:52:30;7.30;99.90
49042;DHT22;34859;51.608;11.462;2022-09-21T06:55:15;7.40;99.90
49042;DHT22;34859;51.608;11.462;2022-09-21T06:58:01;7.50;99.90
49042;DHT22;34859;51.608;11.462;2022-09-21T07:00:46;7.60;99.90
49042;DHT22;34859;51.608;11.462;2022-09-21T07:03:30;7.80;99.90
49042;DHT22;34859;51.608;11.462;2022-09-21T07:06:14;7.90;99.90
49042;DHT22;34859;51.608;11.462;2022-09-21T07:08:58;8.00;99.90
49042;DHT22;34859;51.608;11.462;2022-09-21T07:11:43;8.10;99.90
49042;DHT22;34859;51.608;11.462;2022-09-21T07:14:28;8.20;99.90
49042;DHT22;34859;51.608;11.462;2022-09-21T07:17:12;8.40;99.90
49042;DHT22;34859;51.608;11.462;2022-09-21T07:19:57;8.50;99.90
49042;DHT22;34859;51.608;11.462;2022-09-21T07:22:41;8.60;99.90
49042;DHT22;34859;51.608;11.462;2022-09-21T07:25:25;8.70;99.90
49042;DHT22;34859;51.608;11.462;2022-09-21T07:28:10;8.80;99.90
49042;DHT22;34859;51.608;11.462;2022-09-21T07:30:56;8.90;99.90
49042;DHT22;34859;51.608;11.462;2022-09-21T07:33:42;9.00;99.90
49042;DHT22;34859;51.608;11.462;2022-09-21T07:36:26;9.10;99.90
49042;DHT22;34859;51.608;11.462;2022-09-21T07:39:11;9.30;99.90
49042;DHT22;34859;51.608;11.462;2022-09-21T07:41:55;9.40;99.90
49042;DHT22;34859;51.608;11.462;2022-09-21T07:44:41;9.50;99.90
49042;DHT22;34859;51.608;11.462;2022-09-21T07:47:25;9.80;99.90
49042;DHT22;34859;51.608;11.462;2022-09-21T07:50:11;10.50;99.90
49042;DHT22;34859;51.608;11.462;2022-09-21T07:52:52;10.90;99.90
49042;DHT22;34859;51.608;11.462;2022-09-21T07:55:35;11.20;99.90
49042;DHT22;34859;51.608;11.462;2022-09-21T07:58:20;11.40;99.90
49042;DHT22;34859;51.608;11.462;2022-09-21T08:01:23;11.60;99.90
49042;DHT22;34859;51.608;11.462;2022-09-21T08:04:08;11.80;99.90
49042;DHT22;34859;51.608;11.462;2022-09-21T08:06:53;11.90;99.90
49042;DHT22;34859;51.608;11.462;2022-09-21T08:09:37;12.00;99.90
49042;DHT22;34859;51.608;11.462;2022-09-21T08:12:21;12.00;99.90
49042;DHT22;34859;51.608;11.462;2022-09-21T08:15:05;12.10;99.90
49042;DHT22;34859;51.608;11.462;2022-09-21T08:17:50;12.20;99.90
49042;DHT22;34859;51.608;11.462;2022-09-21T08:20:35;12.40;99.90
49042;DHT22;34859;51.608;11.462;2022-09-21T08:23:20;12.40;99.90
49042;DHT22;34859;51.608;11.462;2022-09-21T08:26:05;12.50;99.90
49042;DHT22;34859;51.608;11.462;2022-09-21T08:28:51;12.60;99.90
49042;DHT22;34859;51.608;11.462;2022-09-21T08:31:36;12.80;99.90
49042;DHT22;34859;51.608;11.462;2022-09-21T08:34:20;12.90;99.90
49042;DHT22;34859;51.608;11.462;2022-09-21T08:37:06;12.90;99.90
49042;DHT22;34859;51.608;11.462;2022-09-21T08:39:50;13.00;99.90
49042;DHT22;34859;51.608;11.462;2022-09-21T08:42:43;13.10;99.90
49042;DHT22;34859;51.608;11.462;2022-09-21T08:45:32;13.20;99.90
49042;DHT22;34859;51.608;11.462;2022-09-21T08:48:25;13.20;99.90
49042;DHT22;34859;51.608;11.462;2022-09-21T08:51:16;13.20;99.90
49042;DHT22;34859;51.608;11.462;2022-09-21T08:54:20;13.30;99.90
49042;DHT22;34859;51.608;11.462;2022-09-21T08:57:10;13.50;99.90
49042;DHT22;34859;51.608;11.462;2022-09-21T08:59:55;13.50;99.90
49042;DHT22;34859;51.608;11.462;2022-09-21T09:11:24;13.50;99.90
49042;DHT22;34859;51.608;11.462;2022-09-21T09:17:26;13.50;99.90
49042;DHT22;34859;51.608;11.462;2022-09-21T09:20:42;13.50;99.90
49042;DHT22;34859;51.608;11.462;2022-09-21T09:26:34;13.60;99.90
49042;DHT22;34859;51.608;11.462;2022-09-21T09:32:38;13.90;99.90
49042;DHT22;34859;51.608;11.462;2022-09-21T09:35:38;13.80;99.90
49042;DHT22;34859;51.608;11.462;2022-09-21T09:38:28;13.90;99.90
49042;DHT22;34859;51.608;11.462;2022-09-21T09:44:09;14.00;99.90
49042;DHT22;34859;51.608;11.462;2022-09-21T09:47:22;14.00;99.90
49042;DHT22;34859;51.608;11.462;2022-09-21T09:53:15;14.10;99.90
49042;DHT22;34859;51.608;11.462;2022-09-21T09:56:00;14.20;99.90
49042;DHT22;34859;51.608;11.462;2022-09-21T09:59:02;14.20;99.90
49042;DHT22;34859;51.608;11.462;2022-09-21T10:01:59;14.30;99.90
49042;DHT22;34859;51.608;11.462;2022-09-21T10:05:00;14.30;99.90
49042;DHT22;34859;51.608;11.462;2022-09-21T10:07:49;14.30;99.90
49042;DHT22;34859;51.608;11.462;2022-09-21T10:10:37;14.40;99.90
49042;DHT22;34859;51.608;11.462;2022-09-21T10:13:27;14.30;99.90
49042;DHT22;34859;51.608;11.462;2022-09-21T10:16:18;14.20;99.90
49042;DHT22;34859;51.608;11.462;2022-09-21T10:19:03;14.40;99.90
49042;DHT22;34859;51.608;11.462;2022-09-21T10:21:55;14.40;99.90
49042;DHT22;34859;51.608;11.462;2022-09-21T10:24:46;14.50;99.90
49042;DHT22;34859;51.608;11.462;2022-09-21T10:27:35;14.20;99.90
49042;DHT22;34859;51.608;11.462;2022-09-21T10:33:21;14.40;99.90
49042;DHT22;34859;51.608;11.462;2022-09-21T10:36:31;14.50;99.90
49042;DHT22;34859;51.608;11.462;2022-09-21T10:39:29;14.60;99.90
49042;DHT22;34859;51.608;11.462;2022-09-21T10:42:16;14.60;99.90
49042;DHT22;34859;51.608;11.462;2022-09-21T10:50:50;14.80;99.90
49042;DHT22;34859;51.608;11.462;2022-09-21T10:53:36;14.90;99.90
49042;DHT22;34859;51.608;11.462;2022-09-21T10:56:20;15.00;99.90
49042;DHT22;34859;51.608;11.462;2022-09-21T10:59:24;15.10;99.90
49042;DHT22;34859;51.608;11.462;2022-09-21T11:02:42;15.20;99.90
49042;DHT22;34859;51.608;11.462;2022-09-21T11:05:30;15.20;99.90
49042;DHT22;34859;51.608;11.462;2022-09-21T11:08:27;15.20;99.90
49042;DHT22;34859;51.608;11.462;2022-09-21T11:29:27;15.10;99.90
49042;DHT22;34859;51.608;11.462;2022-09-21T11:38:46;15.30;99.90
49042;DHT22;34859;51.608;11.462;2022-09-21T11:42:09;15.60;99.90
49042;DHT22;34859;51.608;11.462;2022-09-21T11:44:59;15.60;99.90
49042;DHT22;34859;51.608;11.462;2022-09-21T11:48:25;15.70;99.90
49042;DHT22;34859;51.608;11.462;2022-09-21T11:51:24;15.90;99.90
49042;DHT22;34859;51.608;11.462;2022-09-21T11:54:22;16.20;99.90
49042;DHT22;34859;51.608;11.462;2022-09-21T12:00:41;15.90;99.90
49042;DHT22;34859;51.608;11.462;2022-09-21T12:06:44;15.40;99.90
49042;DHT22;34859;51.608;11.462;2022-09-21T12:21:45;15.60;99.90
49042;DHT22;34859;51.608;11.462;2022-09-21T12:25:16;15.70;99.90
49042;DHT22;34859;51.608;11.462;2022-09-21T12:28:21;15.80;99.90
49042;DHT22;34859;51.608;11.462;2022-09-21T12:31:12;15.80;99.90
49042;DHT22;34859;51.608;11.462;2022-09-21T12:34:14;15.70;99.90
49042;DHT22;34859;51.608;11.462;2022-09-21T12:40:11;15.70;99.90
49042;DHT22;34859;51.608;11.462;2022-09-21T12:43:29;15.60;99.90
49042;DHT22;34859;51.608;11.462;2022-09-21T12:46:37;15.80;99.90
49042;DHT22;34859;51.608;11.462;2022-09-21T12:49:27;15.80;99.90
49042;DHT22;34859;51.608;11.462;2022-09-21T12:52:22;15.70;99.90
49042;DHT22;34859;51.608;11.462;2022-09-21T12:58:28;15.50;99.90
49042;DHT22;34859;51.608;11.462;2022-09-21T13:01:34;15.60;99.90
49042;DHT22;34859;51.608;11.462;2022-09-21T13:04:59;15.80;99.90
49042;DHT22;34859;51.608;11.462;2022-09-21T13:13:38;16.00;99.90
49042;DHT22;34859;51.608;11.462;2022-09-21T13:16:33;16.00;99.90
49042;DHT22;34859;51.608;11.462;2022-09-21T13:19:21;16.00;99.90
49042;DHT22;34859;51.608;11.462;2022-09-21T13:22:22;16.00;99.90
49042;DHT22;34859;51.608;11.462;2022-09-21T13:25:18;16.00;99.90
49042;DHT22;34859;51.608;11.462;2022-09-21T13:31:28;16.00;99.90
49042;DHT22;34859;51.608;11.462;2022-09-21T13:42:47;15.90;99.90
49042;DHT22;34859;51.608;11.462;2022-09-21T13:48:21;16.10;99.90
49042;DHT22;34859;51.608;11.462;2022-09-21T13:51:13;16.10;99.90
49042;DHT22;34859;51.608;11.462;2022-09-21T13:54:00;16.20;99.90
49042;DHT22;34859;51.608;11.462;2022-09-21T13:56:45;16.30;99.90
49042;DHT22;34859;51.608;11.462;2022-09-21T13:59:32;16.20;99.90
49042;DHT22;34859;51.608;11.462;2022-09-21T14:02:30;16.10;99.90
49042;DHT22;34859;51.608;11.462;2022-09-21T14:08:35;16.10;99.90
49042;DHT22;34859;51.608;11.462;2022-09-21T14:14:37;15.90;99.90
49042;DHT22;34859;51.608;11.462;2022-09-21T14:17:36;16.00;99.90
49042;DHT22;34859;51.608;11.462;2022-09-21T14:20:30;16.00;99.90
49042;DHT22;34859;51.608;11.462;2022-09-21T14:26:31;16.20;99.90
49042;DHT22;34859;51.608;11.462;2022-09-21T14:32:24;16.00;99.90
49042;DHT22;34859;51.608;11.462;2022-09-21T14:35:15;16.00;99.90
49042;DHT22;34859;51.608;11.462;2022-09-21T14:38:04;16.10;99.90
49042;DHT22;34859;51.608;11.462;2022-09-21T14:40:59;16.10;99.90
49042;DHT22;34859;51.608;11.462;2022-09-21T14:43:48;16.10;99.90
49042;DHT22;34859;51.608;11.462;2022-09-21T14:53:25;16.30;99.90
49042;DHT22;34859;51.608;11.462;2022-09-21T14:59:33;16.30;99.90
49042;DHT22;34859;51.608;11.462;2022-09-21T15:02:24;16.10;99.90
49042;DHT22;34859;51.608;11.462;2022-09-21T15:05:32;16.00;99.90
49042;DHT22;34859;51.608;11.462;2022-09-21T15:12:08;15.80;99.90
49042;DHT22;34859;51.608;11.462;2022-09-21T15:15:33;15.80;99.90
49042;DHT22;34859;51.608;11.462;2022-09-21T15:18:20;15.70;99.90
49042;DHT22;34859;51.608;11.462;2022-09-21T15:21:03;15.60;99.90
49042;DHT22;34859;51.608;11.462;2022-09-21T15:23:47;15.80;99.90
49042;DHT22;34859;51.608;11.462;2022-09-21T15:30:40;15.70;99.90
49042;DHT22;34859;51.608;11.462;2022-09-21T15:45:46;15.40;99.90
49042;DHT22;34859;51.608;11.462;2022-09-21T15:49:35;15.40;99.90
49042;DHT22;34859;51.608;11.462;2022-09-21T15:53:26;15.40;99.90
49042;DHT22;34859;51.608;11.462;2022-09-21T15:57:40;15.40;99.90
49042;DHT22;34859;51.608;11.462;2022-09-21T16:04:50;15.30;99.90
49042;DHT22;34859;51.608;11.462;2022-09-21T16:17:02;15.20;99.90
49042;DHT22;34859;51.608;11.462;2022-09-21T16:39:32;14.80;99.90
49042;DHT22;34859;51.608;11.462;2022-09-21T16:43:41;14.60;99.90
49042;DHT22;34859;51.608;11.462;2022-09-21T16:47:40;14.50;99.90
49042;DHT22;34859;51.608;11.462;2022-09-21T16:51:27;14.10;99.90
49042;DHT22;34859;51.608;11.462;2022-09-21T16:55:46;13.90;99.90
49042;DHT22;34859;51.608;11.462;2022-09-21T16:59:45;13.70;99.90
49042;DHT22;34859;51.608;11.462;2022-09-21T17:03:33;13.60;99.90
49042;DHT22;34859;51.608;11.462;2022-09-21T17:07:23;13.20;99.90
49042;DHT22;34859;51.608;11.462;2022-09-21T17:11:24;12.90;99.90
49042;DHT22;34859;51.608;11.462;2022-09-21T17:15:12;12.70;99.90
49042;DHT22;34859;51.608;11.462;2022-09-21T17:18:42;12.50;99.90
49042;DHT22;34859;51.608;11.462;2022-09-21T17:22:19;12.30;99.90
49042;DHT22;34859;51.608;11.462;2022-09-21T17:26:13;12.30;99.90
49042;DHT22;34859;51.608;11.462;2022-09-21T17:29:53;11.90;99.90
49042;DHT22;34859;51.608;11.462;2022-09-21T17:33:34;11.50;99.90
49042;DHT22;34859;51.608;11.462;2022-09-21T17:36:53;11.20;99.90
49042;DHT22;34859;51.608;11.462;2022-09-21T17:40:12;11.00;99.90
49042;DHT22;34859;51.608;11.462;2022-09-21T17:43:43;10.90;99.90
49042;DHT22;34859;51.608;11.462;2022-09-21T17:47:08;10.90;99.90
49042;DHT22;34859;51.608;11.462;2022-09-21T17:52:58;10.60;99.90
49042;DHT22;34859;51.608;11.462;2022-09-21T17:59:36;10.60;99.90
49042;DHT22;34859;51.608;11.462;2022-09-21T18:02:31;10.70;99.90
49042;DHT22;34859;51.608;11.462;2022-09-21T18:05:28;10.60;99.90
49042;DHT22;34859;51.608;11.462;2022-09-21T18:08:21;10.70;99.90
49042;DHT22;34859;51.608;11.462;2022-09-21T18:20:31;10.40;99.90
49042;DHT22;34859;51.608;11.462;2022-09-21T18:26:25;10.20;99.90
49042;DHT22;34859;51.608;11.462;2022-09-21T18:45:28;10.00;99.90
49042;DHT22;34859;51.608;11.462;2022-09-21T18:48:36;9.90;99.90
49042;DHT22;34859;51.608;11.462;2022-09-21T18:51:25;9.70;99.90
49042;DHT22;34859;51.608;11.462;2022-09-21T18:54:18;9.70;99.90
49042;DHT22;34859;51.608;11.462;2022-09-21T18:57:10;9.80;99.90
49042;DHT22;34859;51.608;11.462;2022-09-21T18:59:55;9.70;99.90
49042;DHT22;34859;51.608;11.462;2022-09-21T19:02:39;9.60;99.90
49042;DHT22;34859;51.608;11.462;2022-09-21T19:05:24;9.40;99.90
49042;DHT22;34859;51.608;11.462;2022-09-21T19:08:51;9.40;99.90
49042;DHT22;34859;51.608;11.462;2022-09-21T19:21:04;9.40;99.90
49042;DHT22;34859;51.608;11.462;2022-09-21T19:24:09;9.20;99.90
49042;DHT22;34859;51.608;11.462;2022-09-21T19:30:13;9.00;99.90
49042;DHT22;34859;51.608;11.462;2022-09-21T19:32:58;9.10;99.90
49042;DHT22;34859;51.608;11.462;2022-09-21T19:35:46;9.10;99.90
49042;DHT22;34859;51.608;11.462;2022-09-21T19:38:30;8.90;99.90
49042;DHT22;34859;51.608;11.462;2022-09-21T19:47:30;8.70;99.90
49042;DHT22;34859;51.608;11.462;2022-09-21T19:50:25;8.70;99.90
49042;DHT22;34859;51.608;11.462;2022-09-21T19:53:13;8.60;99.90
49042;DHT22;34859;51.608;11.462;2022-09-21T19:56:17;8.60;99.90
49042;DHT22;34859;51.608;11.462;2022-09-21T19:59:20;8.70;99.90
49042;DHT22;34859;51.608;11.462;2022-09-21T20:02:28;8.70;99.90
49042;DHT22;34859;51.608;11.462;2022-09-21T20:05:29;8.70;99.90
49042;DHT22;34859;51.608;11.462;2022-09-21T20:11:23;8.70;99.90
49042;DHT22;34859;51.608;11.462;2022-09-21T20:17:01;8.70;99.90
49042;DHT22;34859;51.608;11.462;2022-09-21T20:19:56;8.50;99.90
49042;DHT22;34859;51.608;11.462;2022-09-21T20:22:43;8.40;99.90
49042;DHT22;34859;51.608;11.462;2022-09-21T20:25:32;8.30;99.90
49042;DHT22;34859;51.608;11.462;2022-09-21T20:28:15;8.30;99.90
49042;DHT22;34859;51.608;11.462;2022-09-21T20:30:59;8.40;99.90
49042;DHT22;34859;51.608;11.462;2022-09-21T20:33:44;8.30;99.90
49042;DHT22;34859;51.608;11.462;2022-09-21T20:36:27;8.30;99.90
49042;DHT22;34859;51.608;11.462;2022-09-21T20:39:12;8.30;99.90
49042;DHT22;34859;51.608;11.462;2022-09-21T20:41:53;8.20;99.90
49042;DHT22;34859;51.608;11.462;2022-09-21T20:44:37;8.20;99.90
49042;DHT22;34859;51.608;11.462;2022-09-21T20:47:21;8.20;99.90
49042;DHT22;34859;51.608;11.462;2022-09-21T20:50:06;8.20;99.90
49042;DHT22;34859;51.608;11.462;2022-09-21T20:52:54;8.20;99.90
49042;DHT22;34859;51.608;11.462;2022-09-21T20:55:40;8.20;99.90
49042;DHT22;34859;51.608;11.462;2022-09-21T20:58:24;8.10;99.90
49042;DHT22;34859;51.608;11.462;2022-09-21T21:01:09;8.10;99.90
49042;DHT22;34859;51.608;11.462;2022-09-21T21:03:56;8.10;99.90
49042;DHT22;34859;51.608;11.462;2022-09-21T21:06:44;8.00;99.90
49042;DHT22;34859;51.608;11.462;2022-09-21T21:09:26;8.00;99.90
49042;DHT22;34859;51.608;11.462;2022-09-21T21:12:11;8.00;99.90
49042;DHT22;34859;51.608;11.462;2022-09-21T21:14:56;8.00;99.90
49042;DHT22;34859;51.608;11.462;2022-09-21T21:17:41;7.90;99.90
49042;DHT22;34859;51.608;11.462;2022-09-21T21:20:25;7.90;99.90
49042;DHT22;34859;51.608;11.462;2022-09-21T21:23:10;7.80;99.90
49042;DHT22;34859;51.608;11.462;2022-09-21T21:25:54;7.80;99.90
49042;DHT22;34859;51.608;11.462;2022-09-21T21:28:38;7.80;99.90
49042;DHT22;34859;51.608;11.462;2022-09-21T21:31:22;7.80;99.90
49042;DHT22;34859;51.608;11.462;2022-09-21T21:34:06;7.80;99.90
49042;DHT22;34859;51.608;11.462;2022-09-21T21:36:51;7.70;99.90
49042;DHT22;34859;51.608;11.462;2022-09-21T21:39:35;7.70;99.90
49042;DHT22;34859;51.608;11.462;2022-09-21T21:42:20;7.70;99.90
49042;DHT22;34859;51.608;11.462;2022-09-21T21:45:05;7.60;99.90
49042;DHT22;34859;51.608;11.462;2022-09-21T21:47:49;7.60;99.90
49042;DHT22;34859;51.608;11.462;2022-09-21T21:50:33;7.60;99.90
49042;DHT22;34859;51.608;11.462;2022-09-21T21:53:18;7.60;99.90
49042;DHT22;34859;51.608;11.462;2022-09-21T21:56:04;7.60;99.90
49042;DHT22;34859;51.608;11.462;2022-09-21T21:58:53;7.50;99.90
49042;DHT22;34859;51.608;11.462;2022-09-21T22:01:37;7.50;99.90
49042;DHT22;34859;51.608;11.462;2022-09-21T22:04:22;7.50;99.90
49042;DHT22;34859;51.608;11.462;2022-09-21T22:07:06;7.50;99.90
49042;DHT22;34859;51.608;11.462;2022-09-21T22:09:50;7.50;99.90
49042;DHT22;34859;51.608;11.462;2022-09-21T22:12:34;7.50;99.90
49042;DHT22;34859;51.608;11.462;2022-09-21T22:15:18;7.50;99.90
49042;DHT22;34859;51.608;11.462;2022-09-21T22:18:02;7.50;99.90
49042;DHT22;34859;51.608;11.462;2022-09-21T22:20:47;7.50;99.90
49042;DHT22;34859;51.608;11.462;2022-09-21T22:23:31;7.40;99.90
49042;DHT22;34859;51.608;11.462;2022-09-21T22:26:16;7.40;99.90
49042;DHT22;34859;51.608;11.462;2022-09-21T22:29:02;7.40;99.90
49042;DHT22;34859;51.608;11.462;2022-09-21T22:31:48;7.30;99.90